createdAt,value
2017-07-30T10:16:24.750Z,39.6
2017-07-30T10:16:46.137Z,40.0
2017-07-30T10:17:07.520Z,41.7
2017-07-30T10:17:28.911Z,42.5
2017-07-30T10:17:50.293Z,44.4
2017-07-30T10:18:11.678Z,42.0
2017-07-30T10:18:33.065Z,42.8
2017-07-30T10:18:54.453Z,43.2
2017-07-30T10:19:15.837Z,44.0
2017-07-30T10:19:37.220Z,43.7
2017-07-30T10:19:58.606Z,44.5
2017-07-30T10:20:19.993Z,44.0
2017-07-30T10:20:41.384Z,44.7
2017-07-30T10:21:02.772Z,47.1
2017-07-30T10:21:24.159Z,47.1
2017-07-30T10:21:45.565Z,48.1
2017-07-30T10:22:07.028Z,49.4
2017-07-30T10:22:28.414Z,48.3
2017-07-30T10:22:49.798Z,48.4
2017-07-30T10:23:11.187Z,47.5
2017-07-30T10:23:32.576Z,46.5
2017-07-30T10:23:53.964Z,48.4
2017-07-30T10:24:15.372Z,48.2
2017-07-30T10:24:36.760Z,49.9
2017-07-30T10:24:58.146Z,49.9
2017-07-30T10:25:19.535Z,49.4
2017-07-30T10:25:40.921Z,48.7
2017-07-30T10:26:02.329Z,47.2
2017-07-30T10:26:23.719Z,44.3
2017-07-30T10:26:45.826Z,43.0
2017-07-30T10:27:07.210Z,42.9
2017-07-30T10:27:28.599Z,45.4
2017-07-30T10:27:49.984Z,45.8
2017-07-30T10:28:11.375Z,48.4
2017-07-30T10:28:32.764Z,48.5
2017-07-30T10:28:54.156Z,45.5
2017-07-30T10:29:15.565Z,45.4
2017-07-30T10:29:36.956Z,46.0
2017-07-30T10:29:58.350Z,45.6
2017-07-30T10:30:19.729Z,44.4
2017-07-30T10:30:41.117Z,45.8
2017-07-30T10:31:02.506Z,45.6
2017-07-30T10:31:23.896Z,48.6
2017-07-30T10:31:45.313Z,47.1
2017-07-30T10:32:06.700Z,45.5
2017-07-30T10:32:28.086Z,47.0
2017-07-30T10:32:49.487Z,48.5
2017-07-30T10:33:10.878Z,47.8
2017-07-30T10:33:32.266Z,46.6
2017-07-30T10:33:53.657Z,46.0
2017-07-30T10:34:15.045Z,46.2
2017-07-30T10:34:36.434Z,47.6
2017-07-30T10:34:57.816Z,47.8
2017-07-30T10:35:19.220Z,47.7
2017-07-30T10:35:40.602Z,46.0
2017-07-30T10:36:01.997Z,45.7
2017-07-30T10:36:23.385Z,45.8
2017-07-30T10:36:44.783Z,44.3
2017-07-30T10:37:06.170Z,43.5
2017-07-30T10:37:27.705Z,45.0
2017-07-30T10:37:49.101Z,46.5
2017-07-30T10:38:10.537Z,47.1
2017-07-30T10:38:31.925Z,44.6
2017-07-30T10:38:53.314Z,45.5
2017-07-30T10:39:14.698Z,47.5
2017-07-30T10:39:36.092Z,46.2
2017-07-30T10:39:57.478Z,44.2
2017-07-30T10:40:18.871Z,44.4
2017-07-30T10:40:40.258Z,45.8
2017-07-30T10:41:01.645Z,47.3
2017-07-30T10:41:23.035Z,45.0
2017-07-30T10:41:44.422Z,46.3
2017-07-30T10:42:06.054Z,45.5
2017-07-30T10:42:27.608Z,44.5
2017-07-30T10:42:49.121Z,44.1
2017-07-30T10:43:10.546Z,45.7
2017-07-30T10:43:32.025Z,43.4
2017-07-30T10:43:53.417Z,43.0
2017-07-30T10:44:14.827Z,43.0
2017-07-30T10:44:36.197Z,44.4
2017-07-30T10:44:58.080Z,44.4
2017-07-30T10:45:19.506Z,44.6
2017-07-30T10:45:41.175Z,44.1
2017-07-30T10:46:02.921Z,45.2
2017-07-30T10:46:24.843Z,44.7
2017-07-30T10:46:46.665Z,44.0
2017-07-30T10:47:08.407Z,44.1
2017-07-30T10:47:30.276Z,43.0
2017-07-30T10:47:52.080Z,43.2
2017-07-30T10:48:13.949Z,43.8
2017-07-30T10:48:35.817Z,44.2
2017-07-30T10:48:57.592Z,45.6
2017-07-30T10:49:19.424Z,45.8
2017-07-30T10:49:41.276Z,44.2
2017-07-30T10:50:03.104Z,43.2
2017-07-30T10:50:24.796Z,42.9
2017-07-30T10:50:46.869Z,42.1
2017-07-30T10:51:08.816Z,42.4
2017-07-30T10:51:30.546Z,43.2
2017-07-30T10:51:52.478Z,42.1
2017-07-30T10:52:14.344Z,42.3
2017-07-30T10:52:36.212Z,42.7
2017-07-30T10:52:58.051Z,43.1
2017-07-30T10:53:19.983Z,43.3
2017-07-30T10:53:41.994Z,44.1
2017-07-30T10:54:03.686Z,42.9
2017-07-30T10:54:25.516Z,42.9
2017-07-30T10:54:47.329Z,42.9
2017-07-30T10:55:09.252Z,44.1
2017-07-30T10:55:31.168Z,44.1
2017-07-30T10:55:53.000Z,43.6
2017-07-30T10:56:15.173Z,43.6
2017-07-30T10:56:36.906Z,43.0
2017-07-30T10:56:58.800Z,43.8
2017-07-30T10:57:20.481Z,44.1
2017-07-30T10:57:42.341Z,43.2
2017-07-30T10:58:04.429Z,42.9
2017-07-30T10:58:26.312Z,41.5
2017-07-30T10:58:48.202Z,41.4
2017-07-30T10:59:10.138Z,41.3
2017-07-30T10:59:31.995Z,40.8
2017-07-30T10:59:53.829Z,39.7
2017-07-30T11:00:16.029Z,40.6
2017-07-30T11:00:38.045Z,41.1
2017-07-30T11:01:00.072Z,42.4
2017-07-30T11:01:22.038Z,43.1
2017-07-30T11:01:43.829Z,44.1
2017-07-30T11:02:05.737Z,43.3
2017-07-30T11:02:27.545Z,43.6
2017-07-30T11:02:49.403Z,44.3
2017-07-30T11:03:11.328Z,44.8
2017-07-30T11:03:33.237Z,43.3
2017-07-30T11:03:55.252Z,43.6
2017-07-30T11:04:17.347Z,43.3
2017-07-30T11:04:39.218Z,42.5
2017-07-30T11:05:01.337Z,42.8
2017-07-30T11:05:23.614Z,42.5
2017-07-30T11:05:45.619Z,42.9
2017-07-30T11:06:07.560Z,43.2
2017-07-30T11:06:29.580Z,43.2
2017-07-30T11:06:51.736Z,42.9
2017-07-30T11:07:13.646Z,43.3
2017-07-30T11:07:35.875Z,42.5
2017-07-30T11:07:57.742Z,41.9
2017-07-30T11:08:19.886Z,42.4
2017-07-30T11:08:42.013Z,43.0
2017-07-30T11:09:03.884Z,43.2
2017-07-30T11:09:26.227Z,43.2
2017-07-30T11:09:48.274Z,41.6
2017-07-30T11:10:10.377Z,40.4
2017-07-30T11:10:32.270Z,41.1
2017-07-30T11:10:54.384Z,41.1
2017-07-30T11:11:15.674Z,40.4
2017-07-30T11:11:37.064Z,39.8
2017-07-30T11:11:58.458Z,40.3
2017-07-30T11:12:19.849Z,41.9
2017-07-30T11:12:41.235Z,43.4
2017-07-30T11:13:02.624Z,42.1
2017-07-30T11:13:24.013Z,41.1
2017-07-30T11:13:45.438Z,40.7
2017-07-30T11:14:06.830Z,39.7
2017-07-30T11:14:28.219Z,40.8
2017-07-30T11:14:49.608Z,42.2
2017-07-30T11:15:10.994Z,42.8
2017-07-30T11:15:32.387Z,42.8
2017-07-30T11:15:53.786Z,42.6
2017-07-30T11:16:15.194Z,40.5
2017-07-30T11:16:36.577Z,38.6
2017-07-30T11:16:57.971Z,38.3
2017-07-30T11:17:19.360Z,39.8
2017-07-30T11:17:40.752Z,39.8
2017-07-30T11:18:02.139Z,39.4
2017-07-30T11:18:23.526Z,37.5
2017-07-30T11:18:44.921Z,38.5
2017-07-30T11:19:06.305Z,39.7
2017-07-30T11:19:27.700Z,39.7
2017-07-30T11:19:49.087Z,38.5
2017-07-30T11:20:10.478Z,39.3
2017-07-30T11:20:31.962Z,39.4
2017-07-30T11:20:53.470Z,39.6
2017-07-30T11:21:14.977Z,39.1
2017-07-30T11:21:36.406Z,39.2
2017-07-30T11:21:57.842Z,38.1
2017-07-30T11:22:19.309Z,38.6
2017-07-30T11:22:40.759Z,38.4
2017-07-30T11:23:02.173Z,38.5
2017-07-30T11:23:23.609Z,41.8
2017-07-30T11:23:45.053Z,40.7
2017-07-30T11:24:06.480Z,40.0
2017-07-30T11:24:27.922Z,38.8
2017-07-30T11:24:49.363Z,37.9
2017-07-30T11:25:10.753Z,38.5
2017-07-30T11:25:32.146Z,38.1
2017-07-30T11:25:53.609Z,38.6
2017-07-30T11:26:15.021Z,38.6
2017-07-30T11:26:36.460Z,39.3
2017-07-30T11:26:57.894Z,38.5
2017-07-30T11:27:19.291Z,38.6
2017-07-30T11:27:40.695Z,38.6
2017-07-30T11:28:02.100Z,39.8
2017-07-30T11:28:23.505Z,40.4
2017-07-30T11:28:44.923Z,40.7
2017-07-30T11:29:06.298Z,39.9
2017-07-30T11:29:27.694Z,39.8
2017-07-30T11:29:49.092Z,39.4
2017-07-30T11:30:10.478Z,37.6
2017-07-30T11:30:31.901Z,38.0
2017-07-30T11:30:53.294Z,38.5
2017-07-30T11:31:14.705Z,40.0
2017-07-30T11:31:36.097Z,39.8
2017-07-30T11:31:57.492Z,39.3
2017-07-30T11:32:18.889Z,39.5
2017-07-30T11:32:40.286Z,38.2
2017-07-30T11:33:01.855Z,38.0
2017-07-30T11:33:23.251Z,38.4
2017-07-30T11:33:44.654Z,39.3
2017-07-30T11:34:06.052Z,40.4
2017-07-30T11:34:27.450Z,39.6
2017-07-30T11:34:48.835Z,39.2
2017-07-30T11:35:10.220Z,39.8
2017-07-30T11:35:31.613Z,40.7
2017-07-30T11:35:53.009Z,39.8
2017-07-30T11:36:14.446Z,40.6
2017-07-30T11:36:35.829Z,40.0
2017-07-30T11:36:57.226Z,40.7
2017-07-30T11:37:18.616Z,39.3
2017-07-30T11:37:40.003Z,37.9
2017-07-30T11:38:01.390Z,38.1
2017-07-30T11:38:22.796Z,39.9
2017-07-30T11:38:44.203Z,40.5
2017-07-30T11:39:05.604Z,39.9
2017-07-30T11:39:26.997Z,39.6
2017-07-30T11:39:48.378Z,40.3
2017-07-30T11:40:09.782Z,39.8
2017-07-30T11:40:31.187Z,39.3
2017-07-30T11:40:52.589Z,39.3
2017-07-30T11:41:13.971Z,39.4
2017-07-30T11:41:35.359Z,39.2
2017-07-30T11:41:56.755Z,39.5
2017-07-30T11:42:18.152Z,41.1
2017-07-30T11:42:39.548Z,41.7
2017-07-30T11:43:00.938Z,40.3
2017-07-30T11:43:22.329Z,39.3
2017-07-30T11:43:43.728Z,39.6
2017-07-30T11:44:05.117Z,39.1
2017-07-30T11:44:26.510Z,39.2
2017-07-30T11:44:47.919Z,39.5
2017-07-30T11:45:09.312Z,40.1
2017-07-30T11:45:30.707Z,40.6
2017-07-30T11:45:52.109Z,40.4
2017-07-30T11:46:13.505Z,39.2
2017-07-30T11:46:34.899Z,38.8
2017-07-30T11:46:56.289Z,38.1
2017-07-30T11:47:17.680Z,37.9
2017-07-30T11:47:39.066Z,38.3
2017-07-30T11:48:00.456Z,38.5
2017-07-30T11:48:21.873Z,39.1
2017-07-30T11:48:43.266Z,39.3
2017-07-30T11:49:04.668Z,38.5
2017-07-30T11:49:26.058Z,38.2
2017-07-30T11:49:47.463Z,37.9
2017-07-30T11:50:08.853Z,38.1
2017-07-30T11:50:30.254Z,39.3
2017-07-30T11:50:51.647Z,40.4
2017-07-30T11:51:13.035Z,40.0
2017-07-30T11:51:34.449Z,39.7
2017-07-30T11:51:55.840Z,40.7
2017-07-30T11:52:17.236Z,39.8
2017-07-30T11:52:38.625Z,39.8
2017-07-30T11:53:00.028Z,39.1
2017-07-30T11:53:21.406Z,37.9
2017-07-30T11:53:42.809Z,37.8
2017-07-30T11:54:04.204Z,37.8
2017-07-30T11:54:25.616Z,37.9
2017-07-30T11:54:47.006Z,38.1
2017-07-30T11:55:08.398Z,38.4
2017-07-30T11:55:29.788Z,39.8
2017-07-30T11:55:51.177Z,39.8
2017-07-30T11:56:12.570Z,39.4
2017-07-30T11:56:33.964Z,39.4
2017-07-30T11:56:55.758Z,39.1
2017-07-30T11:57:17.144Z,39.9
2017-07-30T11:57:38.533Z,39.4
2017-07-30T11:57:59.922Z,38.1
2017-07-30T11:58:21.319Z,37.6
2017-07-30T11:58:42.704Z,36.6
2017-07-30T11:59:04.095Z,37.7
2017-07-30T11:59:25.490Z,36.8
2017-07-30T11:59:46.904Z,36.6
2017-07-30T12:00:08.295Z,37.5
2017-07-30T12:00:29.686Z,38.0
2017-07-30T12:00:51.073Z,37.9
2017-07-30T12:01:12.463Z,37.7
2017-07-30T12:01:33.853Z,37.8
2017-07-30T12:01:55.248Z,36.6
2017-07-30T12:02:16.636Z,36.3
2017-07-30T12:02:38.023Z,36.2
2017-07-30T12:02:59.408Z,38.1
2017-07-30T12:03:20.797Z,37.8
2017-07-30T12:03:42.203Z,38.6
2017-07-30T12:04:03.598Z,38.7
2017-07-30T12:04:25.037Z,39.4
2017-07-30T12:04:46.423Z,39.4
2017-07-30T12:05:07.816Z,39.3
2017-07-30T12:05:29.214Z,39.4
2017-07-30T12:05:50.613Z,40.4
2017-07-30T12:06:12.011Z,39.6
2017-07-30T12:06:33.491Z,38.7
2017-07-30T12:06:54.881Z,38.5
2017-07-30T12:07:16.286Z,38.6
2017-07-30T12:07:37.673Z,39.2
2017-07-30T12:07:59.060Z,38.6
2017-07-30T12:08:20.451Z,39.5
2017-07-30T12:08:41.924Z,39.2
2017-07-30T12:09:03.322Z,38.7
2017-07-30T12:09:24.722Z,38.0
2017-07-30T12:09:46.113Z,38.0
2017-07-30T12:10:07.520Z,37.9
2017-07-30T12:10:28.910Z,38.1
2017-07-30T12:10:50.313Z,37.1
2017-07-30T12:11:11.703Z,37.0
2017-07-30T12:11:33.094Z,38.2
2017-07-30T12:11:54.489Z,37.9
2017-07-30T12:12:15.877Z,37.8
2017-07-30T12:12:37.264Z,38.0
2017-07-30T12:12:58.655Z,35.5
2017-07-30T12:13:20.049Z,36.6
2017-07-30T12:13:41.440Z,38.0
2017-07-30T12:14:02.844Z,38.1
2017-07-30T12:14:24.231Z,36.6
2017-07-30T12:14:45.652Z,35.9
2017-07-30T12:15:07.061Z,36.6
2017-07-30T12:15:28.463Z,37.9
2017-07-30T12:15:49.868Z,38.9
2017-07-30T12:16:11.242Z,39.3
2017-07-30T12:16:32.635Z,37.8
2017-07-30T12:16:54.023Z,38.5
2017-07-30T12:17:15.437Z,38.0
2017-07-30T12:17:36.832Z,37.1
2017-07-30T12:17:58.214Z,38.1
2017-07-30T12:18:19.605Z,37.5
2017-07-30T12:18:40.995Z,37.9
2017-07-30T12:19:02.386Z,38.6
2017-07-30T12:19:23.777Z,39.8
2017-07-30T12:19:45.208Z,39.5
2017-07-30T12:20:06.598Z,39.2
2017-07-30T12:20:27.989Z,39.4
2017-07-30T12:20:49.375Z,37.8
2017-07-30T12:21:10.765Z,38.0
2017-07-30T12:21:32.154Z,37.8
2017-07-30T12:21:53.544Z,38.0
2017-07-30T12:22:14.939Z,38.3
2017-07-30T12:22:36.320Z,38.3
2017-07-30T12:22:57.744Z,38.1
2017-07-30T12:23:19.131Z,38.2
2017-07-30T12:23:40.521Z,38.2
2017-07-30T12:24:01.916Z,38.1
2017-07-30T12:24:23.330Z,37.1
2017-07-30T12:24:44.724Z,36.5
2017-07-30T12:25:06.110Z,38.1
2017-07-30T12:25:27.501Z,38.1
2017-07-30T12:25:48.885Z,38.8
2017-07-30T12:26:10.279Z,39.5
2017-07-30T12:26:31.701Z,39.5
2017-07-30T12:26:53.094Z,39.4
2017-07-30T12:27:14.487Z,39.9
2017-07-30T12:27:35.879Z,39.5
2017-07-30T12:27:57.288Z,35.4
2017-07-30T12:28:18.676Z,35.4
2017-07-30T12:28:40.067Z,36.7
2017-07-30T12:29:01.456Z,38.0
2017-07-30T12:29:22.847Z,38.4
2017-07-30T12:29:44.241Z,39.3
2017-07-30T12:30:05.633Z,38.0
2017-07-30T12:30:27.022Z,38.0
2017-07-30T12:30:48.414Z,37.9
2017-07-30T12:31:09.805Z,38.7
2017-07-30T12:31:31.202Z,39.9
2017-07-30T12:31:52.596Z,40.3
2017-07-30T12:32:13.993Z,40.8
2017-07-30T12:32:35.393Z,39.4
2017-07-30T12:32:56.773Z,41.0
2017-07-30T12:33:18.167Z,39.8
2017-07-30T12:33:39.557Z,39.4
2017-07-30T12:34:00.949Z,39.8
2017-07-30T12:34:22.364Z,39.7
2017-07-30T12:34:43.753Z,38.5
2017-07-30T12:35:05.146Z,38.9
2017-07-30T12:35:26.543Z,37.9
2017-07-30T12:35:47.932Z,38.0
2017-07-30T12:36:09.322Z,37.8
2017-07-30T12:36:30.710Z,38.0
2017-07-30T12:36:52.102Z,38.0
2017-07-30T12:37:13.492Z,38.7
2017-07-30T12:37:34.899Z,37.8
2017-07-30T12:37:56.285Z,38.1
2017-07-30T12:38:17.684Z,38.5
2017-07-30T12:38:39.079Z,39.3
2017-07-30T12:39:00.473Z,39.3
2017-07-30T12:39:22.036Z,38.5
2017-07-30T12:39:43.401Z,38.5
2017-07-30T12:40:04.798Z,39.2
2017-07-30T12:40:26.190Z,38.1
2017-07-30T12:40:47.580Z,38.1
2017-07-30T12:41:08.976Z,38.6
2017-07-30T12:41:30.373Z,38.3
2017-07-30T12:41:51.769Z,37.6
2017-07-30T12:42:13.149Z,37.6
2017-07-30T12:42:34.557Z,38.2
2017-07-30T12:42:55.945Z,38.6
2017-07-30T12:43:17.339Z,39.7
2017-07-30T12:43:38.730Z,38.0
2017-07-30T12:44:00.128Z,38.2
2017-07-30T12:44:21.531Z,39.3
2017-07-30T12:44:42.919Z,40.0
2017-07-30T12:45:04.409Z,39.5
2017-07-30T12:45:25.857Z,38.7
2017-07-30T12:45:47.339Z,38.1
2017-07-30T12:46:08.832Z,38.2
2017-07-30T12:46:30.308Z,38.5
2017-07-30T12:46:51.781Z,39.5
2017-07-30T12:47:13.256Z,40.5
2017-07-30T12:47:34.741Z,40.0
2017-07-30T12:47:56.260Z,39.3
2017-07-30T12:48:17.748Z,39.3
2017-07-30T12:48:39.157Z,40.4
2017-07-30T12:49:00.558Z,40.7
2017-07-30T12:49:22.020Z,40.5
2017-07-30T12:49:43.464Z,39.9
2017-07-30T12:50:04.905Z,39.4
2017-07-30T12:50:26.348Z,36.8
2017-07-30T12:50:47.795Z,39.3
2017-07-30T12:51:09.265Z,40.5
2017-07-30T12:51:30.722Z,39.9
2017-07-30T12:51:52.186Z,39.8
2017-07-30T12:52:13.618Z,40.2
2017-07-30T12:52:35.042Z,40.5
2017-07-30T12:52:56.615Z,39.4
2017-07-30T12:53:18.052Z,39.2
2017-07-30T12:53:39.480Z,39.4
2017-07-30T12:54:00.900Z,38.9
2017-07-30T12:54:22.387Z,38.3
2017-07-30T12:54:43.835Z,38.1
2017-07-30T12:55:05.246Z,38.7
2017-07-30T12:55:26.675Z,38.9
2017-07-30T12:55:48.090Z,38.6
2017-07-30T12:56:09.536Z,38.3
2017-07-30T12:56:30.953Z,37.8
2017-07-30T12:56:52.363Z,38.1
2017-07-30T12:57:13.762Z,37.6
2017-07-30T12:57:35.158Z,36.5
2017-07-30T12:57:56.558Z,37.7
2017-07-30T12:58:17.950Z,36.9
2017-07-30T12:58:39.339Z,36.6
2017-07-30T12:59:00.728Z,36.8
2017-07-30T12:59:22.121Z,36.3
2017-07-30T12:59:43.511Z,36.8
2017-07-30T13:00:04.899Z,37.6
2017-07-30T13:00:26.286Z,37.8
2017-07-30T13:00:47.678Z,38.1
2017-07-30T13:01:09.069Z,38.0
2017-07-30T13:01:30.457Z,38.0
2017-07-30T13:01:51.846Z,38.0
2017-07-30T13:02:13.236Z,38.0
2017-07-30T13:02:34.622Z,39.4
2017-07-30T13:02:56.017Z,39.5
2017-07-30T13:03:17.404Z,39.0
2017-07-30T13:03:38.794Z,38.0
2017-07-30T13:04:00.184Z,38.3
2017-07-30T13:04:21.577Z,38.1
2017-07-30T13:04:42.964Z,38.0
2017-07-30T13:05:04.354Z,37.6
2017-07-30T13:05:25.759Z,37.5
2017-07-30T13:05:47.146Z,38.2
2017-07-30T13:06:08.538Z,38.1
2017-07-30T13:06:29.929Z,39.4
2017-07-30T13:06:51.332Z,39.8
2017-07-30T13:07:12.722Z,39.7
2017-07-30T13:07:34.111Z,39.9
2017-07-30T13:07:55.512Z,38.5
2017-07-30T13:08:16.908Z,39.3
2017-07-30T13:08:38.304Z,38.4
2017-07-30T13:08:59.692Z,39.2
2017-07-30T13:09:21.080Z,38.8
2017-07-30T13:09:42.601Z,38.1
2017-07-30T13:10:03.960Z,37.8
2017-07-30T13:10:25.347Z,37.1
2017-07-30T13:10:46.738Z,37.9
2017-07-30T13:11:08.148Z,38.5
2017-07-30T13:11:29.531Z,38.5
2017-07-30T13:11:50.921Z,38.7
2017-07-30T13:12:12.307Z,38.3
2017-07-30T13:12:33.707Z,38.5
2017-07-30T13:12:55.098Z,38.7
2017-07-30T13:13:16.493Z,38.1
2017-07-30T13:13:37.917Z,38.2
2017-07-30T13:13:59.289Z,36.7
2017-07-30T13:14:20.686Z,38.1
2017-07-30T13:14:42.072Z,37.8
2017-07-30T13:15:03.461Z,39.0
2017-07-30T13:15:24.851Z,38.0
2017-07-30T13:15:46.242Z,38.5
2017-07-30T13:16:07.631Z,39.3
2017-07-30T13:16:29.383Z,39.4
2017-07-30T13:16:50.776Z,39.3
2017-07-30T13:17:12.161Z,38.5
2017-07-30T13:17:33.550Z,38.1
2017-07-30T13:17:54.941Z,37.8
2017-07-30T13:18:16.338Z,38.3
2017-07-30T13:18:37.726Z,38.1
2017-07-30T13:18:59.115Z,38.4
2017-07-30T13:19:20.509Z,38.8
2017-07-30T13:19:41.900Z,38.5
2017-07-30T13:20:03.285Z,38.0
2017-07-30T13:20:24.673Z,37.3
2017-07-30T13:20:46.097Z,37.8
2017-07-30T13:21:07.487Z,37.9
2017-07-30T13:21:28.881Z,38.6
2017-07-30T13:21:50.270Z,38.2
2017-07-30T13:22:11.676Z,40.5
2017-07-30T13:22:33.066Z,39.3
2017-07-30T13:22:54.455Z,39.2
2017-07-30T13:23:15.844Z,39.2
2017-07-30T13:23:37.234Z,40.5
2017-07-30T13:23:58.628Z,40.0
2017-07-30T13:24:20.018Z,39.7
2017-07-30T13:24:41.407Z,39.3
2017-07-30T13:25:02.792Z,38.8
2017-07-30T13:25:24.183Z,39.4
2017-07-30T13:25:45.609Z,39.8
2017-07-30T13:26:06.996Z,38.6
2017-07-30T13:26:28.509Z,39.5
2017-07-30T13:26:49.903Z,38.5
2017-07-30T13:27:11.292Z,38.2
2017-07-30T13:27:32.682Z,39.2
2017-07-30T13:27:54.071Z,40.5
2017-07-30T13:28:15.482Z,41.0
2017-07-30T13:28:36.875Z,41.1
2017-07-30T13:28:58.264Z,40.3
2017-07-30T13:29:19.656Z,40.2
2017-07-30T13:29:41.047Z,39.9
2017-07-30T13:30:02.443Z,39.3
2017-07-30T13:30:23.833Z,38.1
2017-07-30T13:30:45.254Z,37.2
2017-07-30T13:31:06.641Z,38.2
2017-07-30T13:31:28.034Z,36.8
2017-07-30T13:31:49.425Z,37.0
2017-07-30T13:32:10.819Z,36.5
2017-07-30T13:32:32.207Z,36.8
2017-07-30T13:32:53.599Z,36.9
2017-07-30T13:33:15.008Z,37.3
2017-07-30T13:33:36.390Z,37.9
2017-07-30T13:33:57.780Z,37.9
2017-07-30T13:34:19.170Z,38.2
2017-07-30T13:34:40.560Z,37.8
2017-07-30T13:35:01.950Z,37.2
2017-07-30T13:35:23.346Z,38.1
2017-07-30T13:35:44.732Z,38.1
2017-07-30T13:36:06.121Z,37.7
2017-07-30T13:36:27.513Z,38.1
2017-07-30T13:36:48.903Z,37.6
2017-07-30T13:37:10.292Z,36.7
2017-07-30T13:37:31.682Z,36.7
2017-07-30T13:37:53.069Z,37.3
2017-07-30T13:38:14.461Z,37.6
2017-07-30T13:38:35.852Z,38.0
2017-07-30T13:38:57.240Z,38.4
2017-07-30T13:39:18.629Z,38.0
2017-07-30T13:39:40.018Z,38.7
2017-07-30T13:40:01.415Z,39.3
2017-07-30T13:40:22.832Z,38.7
2017-07-30T13:40:44.220Z,39.3
2017-07-30T13:41:05.609Z,36.6
2017-07-30T13:41:27.000Z,36.2
2017-07-30T13:41:48.392Z,36.4
2017-07-30T13:42:09.778Z,36.9
2017-07-30T13:42:31.162Z,38.3
2017-07-30T13:42:52.553Z,38.1
2017-07-30T13:43:13.942Z,37.5
2017-07-30T13:43:35.333Z,36.5
2017-07-30T13:43:56.729Z,36.1
2017-07-30T13:44:18.119Z,36.4
2017-07-30T13:44:39.509Z,37.6
2017-07-30T13:45:00.898Z,37.9
2017-07-30T13:45:22.286Z,37.4
2017-07-30T13:45:43.675Z,37.5
2017-07-30T13:46:05.066Z,37.4
2017-07-30T13:46:26.461Z,38.0
2017-07-30T13:46:47.851Z,38.3
2017-07-30T13:47:09.244Z,37.9
2017-07-30T13:47:30.633Z,36.8
2017-07-30T13:47:52.022Z,37.0
2017-07-30T13:48:13.407Z,37.6
2017-07-30T13:48:34.795Z,36.7
2017-07-30T13:48:56.189Z,37.9
2017-07-30T13:49:17.581Z,37.9
2017-07-30T13:49:38.969Z,38.0
2017-07-30T13:50:00.356Z,38.5
2017-07-30T13:50:21.746Z,38.3
2017-07-30T13:50:43.135Z,38.6
2017-07-30T13:51:04.528Z,39.1
2017-07-30T13:51:25.921Z,39.1
2017-07-30T13:51:47.313Z,39.1
2017-07-30T13:52:08.704Z,39.8
2017-07-30T13:52:30.099Z,40.7
2017-07-30T13:52:51.486Z,39.7
2017-07-30T13:53:12.874Z,39.4
2017-07-30T13:53:34.268Z,39.2
2017-07-30T13:53:55.660Z,39.4
2017-07-30T13:54:17.047Z,39.3
2017-07-30T13:54:38.436Z,40.1
2017-07-30T13:54:59.826Z,39.9
2017-07-30T13:55:21.216Z,39.4
2017-07-30T13:55:42.608Z,39.3
2017-07-30T13:56:04.018Z,39.1
2017-07-30T13:56:25.386Z,40.0
2017-07-30T13:56:46.780Z,39.9
2017-07-30T13:57:08.166Z,40.2
2017-07-30T13:57:29.564Z,39.9
2017-07-30T13:57:50.944Z,40.1
2017-07-30T13:58:12.338Z,40.4
2017-07-30T13:58:33.729Z,39.8
2017-07-30T13:58:55.134Z,40.5
2017-07-30T13:59:16.525Z,40.6
2017-07-30T13:59:37.912Z,40.5
2017-07-30T13:59:59.298Z,39.5
2017-07-30T14:00:20.686Z,39.8
2017-07-30T14:00:42.076Z,41.2
2017-07-30T14:01:03.467Z,41.1
2017-07-30T14:01:24.864Z,41.4
2017-07-30T14:01:46.248Z,40.6
2017-07-30T14:02:07.640Z,41.7
2017-07-30T14:02:29.054Z,42.3
2017-07-30T14:02:50.446Z,42.1
2017-07-30T14:03:11.834Z,42.7
2017-07-30T14:03:33.223Z,42.6
2017-07-30T14:03:54.612Z,42.5
2017-07-30T14:04:16.025Z,42.6
2017-07-30T14:04:37.414Z,42.0
2017-07-30T14:04:58.798Z,42.2
2017-07-30T14:05:20.193Z,41.9
2017-07-30T14:05:41.576Z,42.0
2017-07-30T14:06:02.966Z,41.6
2017-07-30T14:06:24.355Z,42.3
2017-07-30T14:06:45.768Z,42.1
2017-07-30T14:07:07.156Z,41.6
2017-07-30T14:07:28.542Z,41.2
2017-07-30T14:07:49.930Z,40.6
2017-07-30T14:08:11.329Z,41.1
2017-07-30T14:08:32.718Z,40.6
2017-07-30T14:08:54.109Z,40.3
2017-07-30T14:09:15.528Z,40.0
2017-07-30T14:09:36.919Z,40.5
2017-07-30T14:09:58.307Z,41.5
2017-07-30T14:10:19.706Z,41.8
2017-07-30T14:10:41.102Z,41.3
2017-07-30T14:11:02.489Z,41.7
2017-07-30T14:11:23.880Z,40.8
2017-07-30T14:11:45.297Z,40.8
2017-07-30T14:12:06.677Z,42.1
2017-07-30T14:12:28.077Z,41.1
2017-07-30T14:12:49.469Z,41.4
2017-07-30T14:13:10.856Z,41.2
2017-07-30T14:13:32.246Z,40.9
2017-07-30T14:13:53.636Z,41.0
2017-07-30T14:14:15.038Z,40.8
2017-07-30T14:14:36.422Z,40.9
2017-07-30T14:14:57.811Z,41.6
2017-07-30T14:15:19.197Z,41.4
2017-07-30T14:15:40.586Z,41.4
2017-07-30T14:16:01.976Z,40.6
2017-07-30T14:16:23.384Z,41.9
2017-07-30T14:16:44.775Z,41.6
2017-07-30T14:17:06.173Z,40.9
2017-07-30T14:17:27.563Z,40.7
2017-07-30T14:17:48.953Z,40.5
2017-07-30T14:18:10.342Z,40.5
2017-07-30T14:18:31.731Z,40.7
2017-07-30T14:18:53.120Z,40.2
2017-07-30T14:19:14.512Z,39.8
2017-07-30T14:19:35.900Z,39.5
2017-07-30T14:19:57.287Z,41.4
2017-07-30T14:20:18.677Z,40.9
2017-07-30T14:20:40.062Z,40.9
2017-07-30T14:21:01.454Z,41.5
2017-07-30T14:21:22.843Z,40.9
2017-07-30T14:21:44.234Z,40.7
2017-07-30T14:22:05.627Z,40.8
2017-07-30T14:22:27.010Z,40.7
2017-07-30T14:22:48.400Z,40.5
2017-07-30T14:23:09.787Z,39.5
2017-07-30T14:23:31.179Z,39.4
2017-07-30T14:23:52.568Z,39.8
2017-07-30T14:24:13.960Z,39.7
2017-07-30T14:24:35.346Z,39.7
2017-07-30T14:24:56.732Z,38.4
2017-07-30T14:25:18.123Z,39.3
2017-07-30T14:25:39.509Z,39.8
2017-07-30T14:26:00.926Z,39.8
2017-07-30T14:26:22.291Z,40.7
2017-07-30T14:26:43.684Z,40.8
2017-07-30T14:27:05.070Z,40.6
2017-07-30T14:27:26.458Z,40.1
2017-07-30T14:27:47.849Z,39.5
2017-07-30T14:28:09.236Z,39.5
2017-07-30T14:28:30.634Z,39.9
2017-07-30T14:28:52.024Z,40.1
2017-07-30T14:29:13.415Z,39.9
2017-07-30T14:29:34.826Z,39.9
2017-07-30T14:29:56.216Z,40.2
2017-07-30T14:30:17.602Z,40.9
2017-07-30T14:30:38.990Z,40.5
2017-07-30T14:31:00.382Z,40.1
2017-07-30T14:31:21.774Z,40.3
2017-07-30T14:31:43.166Z,39.8
2017-07-30T14:32:04.555Z,40.7
2017-07-30T14:32:25.941Z,40.8
2017-07-30T14:32:47.330Z,40.9
2017-07-30T14:33:08.731Z,40.9
2017-07-30T14:33:30.110Z,41.4
2017-07-30T14:33:51.499Z,40.9
2017-07-30T14:34:12.892Z,40.5
2017-07-30T14:34:34.283Z,40.8
2017-07-30T14:34:55.669Z,41.3
2017-07-30T14:35:17.056Z,40.6
2017-07-30T14:35:38.445Z,40.5
2017-07-30T14:35:59.838Z,39.9
2017-07-30T14:36:21.224Z,40.9
2017-07-30T14:36:42.614Z,41.3
2017-07-30T14:37:04.003Z,41.8
2017-07-30T14:37:25.388Z,41.7
2017-07-30T14:37:46.780Z,42.9
2017-07-30T14:38:08.168Z,42.5
2017-07-30T14:38:29.556Z,41.3
2017-07-30T14:38:50.946Z,41.3
2017-07-30T14:39:12.337Z,40.2
2017-07-30T14:39:33.726Z,40.6
2017-07-30T14:39:55.112Z,40.8
2017-07-30T14:40:16.501Z,41.1
2017-07-30T14:40:37.890Z,40.8
2017-07-30T14:40:59.939Z,40.3
2017-07-30T14:41:21.309Z,40.4
2017-07-30T14:41:42.697Z,40.7
2017-07-30T14:42:04.185Z,40.9
2017-07-30T14:42:25.572Z,40.6
2017-07-30T14:42:46.961Z,40.6
2017-07-30T14:43:08.348Z,41.4
2017-07-30T14:43:29.738Z,41.3
2017-07-30T14:43:51.128Z,41.2
2017-07-30T14:44:12.519Z,41.2
2017-07-30T14:44:33.909Z,41.2
2017-07-30T14:44:55.295Z,41.9
2017-07-30T14:45:16.685Z,42.2
2017-07-30T14:45:38.074Z,41.6
2017-07-30T14:45:59.472Z,41.3
2017-07-30T14:46:20.864Z,41.0
2017-07-30T14:46:42.256Z,41.6
2017-07-30T14:47:03.644Z,41.6
2017-07-30T14:47:25.031Z,42.3
2017-07-30T14:47:46.421Z,42.3
2017-07-30T14:48:07.811Z,42.1
2017-07-30T14:48:29.203Z,41.9
2017-07-30T14:48:50.592Z,41.8
2017-07-30T14:49:11.982Z,41.5
2017-07-30T14:49:33.369Z,41.3
2017-07-30T14:49:54.756Z,41.5
2017-07-30T14:50:16.173Z,42.1
2017-07-30T14:50:37.561Z,42.2
2017-07-30T14:50:58.954Z,41.6
2017-07-30T14:51:20.339Z,41.8
2017-07-30T14:51:41.730Z,41.6
2017-07-30T14:52:03.121Z,42.2
2017-07-30T14:52:24.507Z,41.6
2017-07-30T14:52:46.642Z,41.6
2017-07-30T14:53:08.032Z,41.4
2017-07-30T14:53:29.424Z,42.1
2017-07-30T14:53:50.811Z,42.7
2017-07-30T14:54:12.217Z,42.5
2017-07-30T14:54:33.611Z,43.1
2017-07-30T14:54:54.998Z,42.5
2017-07-30T14:55:16.386Z,42.7
2017-07-30T14:55:37.776Z,42.4
2017-07-30T14:55:59.166Z,42.2
2017-07-30T14:56:20.557Z,42.3
2017-07-30T14:56:41.946Z,42.1
2017-07-30T14:57:03.334Z,43.0
2017-07-30T14:57:24.722Z,43.0
2017-07-30T14:57:46.134Z,43.1
2017-07-30T14:58:07.524Z,43.2
2017-07-30T14:58:28.913Z,43.2
2017-07-30T14:58:50.305Z,42.9
2017-07-30T14:59:11.692Z,44.2
2017-07-30T14:59:33.084Z,43.7
2017-07-30T14:59:54.470Z,43.5
2017-07-30T15:00:15.890Z,43.1
2017-07-30T15:00:37.277Z,44.2
2017-07-30T15:00:58.666Z,43.0
2017-07-30T15:01:20.056Z,42.9
2017-07-30T15:01:41.450Z,43.0